Time;durP1;ratioP1;P1;durP2;ratioP2;P2;SDS_P1;SDS_P2;PMS_P1;PMS_P2;Temp;Humidity;BMP_temperature;BMP_pressure;BME280_temperature;BME280_humidity;BME280_pressure;Samples;Min_cycle;Max_cycle;Signal;HPM_P1;HPM_P2
2022/09/06 00:01:43;;;;;;;0.00;0.00;;;;;;;;;;6248353;22;20468;-85
2022/09/06 00:04:09;;;;;;;0.10;0.10;;;;;;;;;;6223292;22;20153;-85
2022/09/06 00:06:35;;;;;;;0.10;0.10;;;;;;;;;;6223252;22;20073;-85
2022/09/06 00:09:01;;;;;;;0.00;0.00;;;;;;;;;;6222505;22;20150;-84
2022/09/06 00:11:27;;;;;;;0.10;0.10;;;;;;;;;;6223061;22;20077;-85
2022/09/06 00:13:53;;;;;;;0.10;0.10;;;;;;;;;;6248287;22;20015;-85
2022/09/06 00:16:23;;;;;;;0.08;0.08;;;;;;;;;;6248418;22;20099;-85
2022/09/06 00:18:53;;;;;;;0.10;0.10;;;;;;;;;;6222640;22;20314;-85
2022/09/06 00:21:21;;;;;;;0.05;0.05;;;;;;;;;;6248250;22;20012;-85
2022/09/06 00:23:47;;;;;;;0.20;0.20;;;;;;;;;;6223187;22;20486;-85
2022/09/06 00:26:13;;;;;;;0.10;0.10;;;;;;;;;;6222839;22;20019;-85
2022/09/06 00:28:39;;;;;;;0.03;0.03;;;;;;;;;;6224818;22;20019;-85
2022/09/06 00:31:34;;;;;;;0.10;0.10;;;;;;;;;;6224268;22;20038;-85
2022/09/06 00:34:00;;;;;;;0.10;0.10;;;;;;;;;;6248162;22;20086;-85
2022/09/06 00:36:26;;;;;;;0.00;0.00;;;;;;;;;;6224957;22;20015;-85
2022/09/06 00:38:52;;;;;;;0.00;0.00;;;;;;;;;;6224357;22;20314;-86
2022/09/06 00:41:18;;;;;;;0.00;0.00;;;;;;;;;;6224943;22;20062;-85
2022/09/06 00:43:45;;;;;;;0.00;0.00;;;;;;;;;;6249907;22;20023;-85
2022/09/06 00:46:14;;;;;;;0.10;0.10;;;;;;;;;;6224921;22;20019;-85
2022/09/06 00:48:40;;;;;;;0.05;0.05;;;;;;;;;;6224772;22;20016;-85
2022/09/06 00:51:08;;;;;;;0.00;0.00;;;;;;;;;;6224063;22;20027;-85
2022/09/06 00:53:34;;;;;;;0.00;0.00;;;;;;;;;;6250052;22;20091;-85
2022/09/06 00:56:00;;;;;;;0.00;0.00;;;;;;;;;;6250367;22;20061;-85
2022/09/06 00:58:26;;;;;;;0.10;0.10;;;;;;;;;;6224479;22;20028;-85
2022/09/06 01:00:52;;;;;;;0.10;0.10;;;;;;;;;;6249300;22;20020;-85
2022/09/06 01:03:20;;;;;;;0.08;0.08;;;;;;;;;;6224646;22;20030;-85
2022/09/06 01:06:04;;;;;;;0.00;0.00;;;;;;;;;;6224789;22;20023;-85
2022/09/06 01:08:49;;;;;;;0.00;0.00;;;;;;;;;;6224300;22;20098;-85
2022/09/06 01:11:24;;;;;;;0.10;0.10;;;;;;;;;;6250099;22;20028;-85
2022/09/06 01:14:05;;;;;;;0.00;0.00;;;;;;;;;;6249685;22;20380;-85
2022/09/06 01:16:34;;;;;;;0.00;0.00;;;;;;;;;;6249729;22;20503;-85
2022/09/06 01:19:00;;;;;;;0.10;0.10;;;;;;;;;;6223955;22;20392;-85
2022/09/06 01:21:55;;;;;;;0.08;0.08;;;;;;;;;;6224548;22;20016;-85
2022/09/06 01:24:21;;;;;;;;;;;;;;;;;;6196301;22;20017;-85
2022/09/06 01:27:14;;;;;;;0.10;0.10;;;;;;;;;;6224420;22;19988;-85
2022/09/06 01:29:51;;;;;;;0.00;0.00;;;;;;;;;;6223610;22;20016;-85
2022/09/06 01:32:26;;;;;;;0.00;0.00;;;;;;;;;;6224461;22;20020;-85
2022/09/06 01:34:56;;;;;;;0.00;0.00;;;;;;;;;;6224560;22;20019;-85
2022/09/06 01:37:22;;;;;;;0.10;0.10;;;;;;;;;;6249796;22;20451;-85
2022/09/06 01:39:48;;;;;;;0.08;0.08;;;;;;;;;;6249067;22;20023;-85
2022/09/06 01:42:19;;;;;;;0.00;0.00;;;;;;;;;;6224231;22;20019;-85
2022/09/06 01:44:48;;;;;;;0.00;0.00;;;;;;;;;;6249335;22;20024;-85
2022/09/06 01:47:23;;;;;;;0.10;0.10;;;;;;;;;;6224229;22;20091;-85
2022/09/06 01:49:52;;;;;;;0.10;0.10;;;;;;;;;;6223854;22;20015;-85
2022/09/06 01:52:30;;;;;;;0.10;0.10;;;;;;;;;;6224195;22;20073;-85
2022/09/06 01:55:02;;;;;;;0.10;0.10;;;;;;;;;;6224266;22;20012;-85
2022/09/06 01:57:51;;;;;;;0.20;0.20;;;;;;;;;;6224109;22;20043;-85
2022/09/06 02:00:18;;;;;;;0.00;0.00;;;;;;;;;;6223353;22;20449;-85
2022/09/06 02:02:44;;;;;;;0.10;0.10;;;;;;;;;;6249499;22;20022;-85
2022/09/06 02:05:22;;;;;;;0.00;0.00;;;;;;;;;;6249457;22;20035;-85
2022/09/06 02:07:48;;;;;;;0.20;0.20;;;;;;;;;;6249399;22;20065;-85
2022/09/06 02:10:27;;;;;;;0.00;0.00;;;;;;;;;;6223196;22;20022;-85
2022/09/06 02:12:54;;;;;;;0.10;0.10;;;;;;;;;;6223914;22;20095;-85
2022/09/06 02:15:26;;;;;;;0.00;0.00;;;;;;;;;;6223869;22;20109;-85
2022/09/06 02:18:00;;;;;;;0.00;0.00;;;;;;;;;;6276717;22;20058;-85
2022/09/06 02:20:29;;;;;;;0.00;0.00;;;;;;;;;;6223303;22;20015;-85
2022/09/06 02:22:57;;;;;;;0.00;0.00;;;;;;;;;;6223780;22;20015;-85
2022/09/06 02:25:25;;;;;;;0.00;0.00;;;;;;;;;;6223774;22;20027;-85
2022/09/06 02:27:52;;;;;;;0.10;0.10;;;;;;;;;;6223496;22;20508;-85
2022/09/06 02:30:18;;;;;;;0.10;0.10;;;;;;;;;;6223139;22;20046;-85
2022/09/06 02:32:47;;;;;;;0.10;0.10;;;;;;;;;;6223721;22;20015;-84
2022/09/06 02:35:15;;;;;;;0.00;0.00;;;;;;;;;;6224004;22;20012;-85
2022/09/06 02:37:41;;;;;;;0.10;0.10;;;;;;;;;;6223870;22;20011;-85
2022/09/06 02:40:09;;;;;;;0.10;0.10;;;;;;;;;;6223031;22;20104;-85
2022/09/06 02:42:35;;;;;;;0.00;0.00;;;;;;;;;;6223650;22;20023;-85
2022/09/06 02:45:01;;;;;;;0.00;0.00;;;;;;;;;;6223716;22;20097;-85
2022/09/06 02:47:27;;;;;;;0.10;0.10;;;;;;;;;;6223568;22;20020;-85
2022/09/06 02:49:53;;;;;;;0.10;0.10;;;;;;;;;;6223495;22;20523;-85
2022/09/06 02:52:19;;;;;;;0.00;0.00;;;;;;;;;;6223583;22;20019;-85
2022/09/06 02:54:45;;;;;;;0.10;0.10;;;;;;;;;;6223683;22;20012;-85
2022/09/06 02:57:11;;;;;;;0.00;0.00;;;;;;;;;;6223513;22;20019;-85
2022/09/06 02:59:37;;;;;;;0.10;0.10;;;;;;;;;;6222928;22;20016;-85
2022/09/06 03:02:03;;;;;;;0.10;0.10;;;;;;;;;;6223463;22;20015;-86
2022/09/06 03:04:30;;;;;;;0.00;0.00;;;;;;;;;;6223582;22;20026;-85
2022/09/06 03:06:56;;;;;;;0.05;0.05;;;;;;;;;;6222915;22;20030;-85
2022/09/06 03:09:22;;;;;;;0.17;0.17;;;;;;;;;;6222789;22;20014;-86
2022/09/06 03:11:48;;;;;;;0.13;0.13;;;;;;;;;;6248562;22;20091;-85
2022/09/06 03:14:15;;;;;;;0.00;0.00;;;;;;;;;;6223234;22;20380;-86
2022/09/06 03:16:42;;;;;;;0.00;0.00;;;;;;;;;;6248529;22;20094;-85
2022/09/06 03:19:08;;;;;;;0.10;0.10;;;;;;;;;;6222886;22;20046;-85
2022/09/06 03:21:34;;;;;;;0.10;0.10;;;;;;;;;;6223463;22;20500;-85
2022/09/06 03:24:00;;;;;;;0.03;0.03;;;;;;;;;;6248863;22;20371;-85
2022/09/06 03:26:28;;;;;;;0.05;0.05;;;;;;;;;;6223385;22;20407;-86
2022/09/06 03:28:54;;;;;;;0.00;0.00;;;;;;;;;;6222655;22;20484;-85
2022/09/06 03:31:21;;;;;;;0.00;0.00;;;;;;;;;;6223328;22;20019;-85
2022/09/06 03:33:47;;;;;;;0.00;0.00;;;;;;;;;;6222934;22;20066;-85
2022/09/06 03:36:14;;;;;;;0.10;0.10;;;;;;;;;;6248080;22;20064;-85
2022/09/06 03:38:40;;;;;;;0.10;0.10;;;;;;;;;;6223859;22;20015;-85
2022/09/06 03:41:06;;;;;;;0.10;0.10;;;;;;;;;;6248310;22;20020;-85
2022/09/06 03:43:32;;;;;;;0.03;0.03;;;;;;;;;;6222675;22;20506;-85
2022/09/06 03:45:58;;;;;;;0.00;0.00;;;;;;;;;;6222961;22;20058;-85
2022/09/06 03:48:26;;;;;;;0.10;0.10;;;;;;;;;;6222893;22;20012;-85
2022/09/06 03:50:53;;;;;;;0.10;0.10;;;;;;;;;;6222487;22;20027;-86
2022/09/06 03:53:19;;;;;;;0.10;0.10;;;;;;;;;;6222890;22;20094;-85
2022/09/06 03:55:46;;;;;;;0.10;0.10;;;;;;;;;;6222818;22;20055;-86
2022/09/06 03:58:12;;;;;;;0.10;0.10;;;;;;;;;;6223438;22;20395;-85
2022/09/06 04:00:38;;;;;;;0.00;0.00;;;;;;;;;;6222549;22;20041;-85
2022/09/06 04:03:04;;;;;;;0.00;0.00;;;;;;;;;;6223031;22;20402;-85
2022/09/06 04:05:30;;;;;;;0.10;0.10;;;;;;;;;;6224423;22;20020;-85
2022/09/06 04:07:56;;;;;;;0.00;0.00;;;;;;;;;;6224335;22;20012;-85
2022/09/06 04:10:22;;;;;;;0.10;0.10;;;;;;;;;;6224064;22;20330;-85
2022/09/06 04:12:49;;;;;;;0.10;0.10;;;;;;;;;;6224212;22;20020;-85
2022/09/06 04:15:15;;;;;;;0.05;0.05;;;;;;;;;;6224027;22;20065;-85
2022/09/06 04:17:45;;;;;;;0.15;0.15;;;;;;;;;;6249629;22;20050;-85
2022/09/06 04:20:12;;;;;;;0.05;0.05;;;;;;;;;;6223441;22;20020;-85
2022/09/06 04:22:54;;;;;;;0.10;0.10;;;;;;;;;;6224290;22;20019;-85
2022/09/06 04:25:20;;;;;;;0.00;0.00;;;;;;;;;;6224385;22;20054;-85
2022/09/06 04:27:46;;;;;;;0.10;0.10;;;;;;;;;;6224101;22;20102;-85
2022/09/06 04:30:12;;;;;;;0.00;0.00;;;;;;;;;;6223950;22;20019;-85
2022/09/06 04:32:38;;;;;;;0.10;0.10;;;;;;;;;;6223997;22;20051;-85
2022/09/06 04:35:05;;;;;;;0.20;0.20;;;;;;;;;;6224065;22;20015;-85
2022/09/06 04:37:31;;;;;;;0.00;0.00;;;;;;;;;;6224000;22;20094;-85
2022/09/06 04:39:57;;;;;;;0.10;0.10;;;;;;;;;;6223497;22;20458;-85
2022/09/06 04:42:23;;;;;;;0.00;0.00;;;;;;;;;;6223983;22;20016;-85
2022/09/06 04:44:49;;;;;;;0.10;0.10;;;;;;;;;;6223336;22;20107;-85
2022/09/06 04:47:17;;;;;;;0.00;0.00;;;;;;;;;;6224240;22;20448;-84
2022/09/06 04:49:43;;;;;;;0.10;0.10;;;;;;;;;;6223513;22;20022;-85
2022/09/06 04:52:10;;;;;;;0.05;0.05;;;;;;;;;;6224032;22;20011;-85
2022/09/06 04:54:36;;;;;;;0.20;0.20;;;;;;;;;;6223927;22;20061;-85
2022/09/06 04:57:02;;;;;;;0.00;0.00;;;;;;;;;;6224135;22;20057;-85
2022/09/06 04:59:28;;;;;;;0.13;0.13;;;;;;;;;;6223147;22;20669;-85
2022/09/06 05:01:54;;;;;;;0.00;0.00;;;;;;;;;;6223605;22;20046;-85
2022/09/06 05:04:20;;;;;;;0.10;0.10;;;;;;;;;;6223907;22;20019;-85
2022/09/06 05:06:46;;;;;;;0.20;0.20;;;;;;;;;;6223880;22;20445;-85
2022/09/06 05:09:12;;;;;;;0.10;0.10;;;;;;;;;;6248501;22;20012;-84
2022/09/06 05:11:38;;;;;;;0.10;0.10;;;;;;;;;;6223855;22;20058;-88
2022/09/06 05:14:04;;;;;;;0.10;0.10;;;;;;;;;;6249971;22;20011;-89
2022/09/06 05:16:30;;;;;;;0.10;0.10;;;;;;;;;;6225535;22;20030;-89
2022/09/06 05:18:56;;;;;;;0.10;0.10;;;;;;;;;;6224580;22;20016;-89
2022/09/06 05:21:22;;;;;;;0.00;0.00;;;;;;;;;;6224855;22;20099;-87
2022/09/06 05:23:48;;;;;;;0.10;0.10;;;;;;;;;;6225231;22;20016;-89
2022/09/06 05:26:14;;;;;;;0.10;0.10;;;;;;;;;;6224878;22;20099;-88
2022/09/06 05:28:40;;;;;;;0.10;0.10;;;;;;;;;;6224537;22;20012;-89
2022/09/06 05:31:22;;;;;;;0.10;0.10;;;;;;;;;;6224302;22;20023;-88
2022/09/06 05:33:48;;;;;;;0.00;0.00;;;;;;;;;;6225273;22;20456;-89
2022/09/06 05:36:14;;;;;;;0.10;0.10;;;;;;;;;;6224868;22;20020;-88
2022/09/06 05:38:40;;;;;;;0.03;0.03;;;;;;;;;;6224638;22;20357;-88
2022/09/06 05:41:06;;;;;;;0.10;0.10;;;;;;;;;;6224218;22;20077;-89
2022/09/06 05:43:31;;;;;;;0.00;0.00;;;;;;;;;;6224699;22;20055;-89
2022/09/06 05:45:57;;;;;;;0.10;0.10;;;;;;;;;;6225297;22;20047;-89
2022/09/06 05:48:23;;;;;;;0.10;0.10;;;;;;;;;;6224666;22;20404;-88
2022/09/06 05:50:59;;;;;;;0.10;0.10;;;;;;;;;;6224244;22;20020;-89
2022/09/06 05:53:25;;;;;;;0.05;0.05;;;;;;;;;;6224667;22;20064;-89
2022/09/06 05:55:51;;;;;;;0.10;0.10;;;;;;;;;;6224562;22;20066;-88
2022/09/06 05:58:17;;;;;;;0.10;0.10;;;;;;;;;;6224562;22;20514;-88
2022/09/06 06:00:43;;;;;;;0.10;0.10;;;;;;;;;;6223504;22;20090;-88
2022/09/06 06:03:09;;;;;;;0.00;0.00;;;;;;;;;;6224546;22;20020;-84
2022/09/06 06:05:48;;;;;;;0.10;0.10;;;;;;;;;;6216330;22;20018;-84
2022/09/06 06:08:17;;;;;;;0.10;0.10;;;;;;;;;;6222905;22;20015;-84
2022/09/06 06:10:43;;;;;;;0.00;0.00;;;;;;;;;;6247540;22;20020;-84
2022/09/06 06:13:09;;;;;;;0.00;0.00;;;;;;;;;;6222400;22;20023;-85
2022/09/06 06:15:34;;;;;;;0.10;0.10;;;;;;;;;;6221308;22;20012;-86
2022/09/06 06:18:00;;;;;;;0.17;0.17;;;;;;;;;;6247619;22;20093;-86
2022/09/06 06:20:26;;;;;;;0.00;0.00;;;;;;;;;;6222056;22;20115;-86
2022/09/06 06:22:53;;;;;;;0.10;0.10;;;;;;;;;;6222875;22;20153;-86
2022/09/06 06:25:21;;;;;;;0.00;0.00;;;;;;;;;;6223031;22;20020;-85
2022/09/06 06:27:47;;;;;;;0.00;0.00;;;;;;;;;;6222892;22;20015;-86
2022/09/06 06:30:14;;;;;;;0.00;0.00;;;;;;;;;;6224602;22;20051;-90
2022/09/06 06:32:40;;;;;;;0.00;0.00;;;;;;;;;;6224500;22;20019;-87
2022/09/06 06:35:07;;;;;;;0.00;0.00;;;;;;;;;;6223651;22;20331;-88
2022/09/06 06:37:33;;;;;;;0.03;0.03;;;;;;;;;;6223887;22;20018;-87
2022/09/06 06:39:59;;;;;;;0.10;0.10;;;;;;;;;;6223089;22;20050;-91
2022/09/06 06:42:25;;;;;;;0.10;0.10;;;;;;;;;;6225158;22;20019;-90
2022/09/06 06:44:52;;;;;;;0.00;0.00;;;;;;;;;;6224694;22;20022;-89
2022/09/06 06:47:18;;;;;;;0.10;0.10;;;;;;;;;;6225050;22;20015;-90
2022/09/06 06:49:44;;;;;;;0.10;0.10;;;;;;;;;;6225110;22;20133;-93
2022/09/06 06:52:10;;;;;;;0.10;0.10;;;;;;;;;;6251973;22;20026;-93
2022/09/06 06:54:37;;;;;;;0.10;0.10;;;;;;;;;;6225961;22;20016;-90
2022/09/06 06:57:03;;;;;;;0.00;0.00;;;;;;;;;;6224475;22;20039;-88
2022/09/06 06:59:30;;;;;;;0.00;0.00;;;;;;;;;;6222304;22;20019;-88
2022/09/06 07:01:56;;;;;;;0.20;0.20;;;;;;;;;;6223676;22;20047;-87
2022/09/06 07:04:22;;;;;;;0.00;0.00;;;;;;;;;;6224677;22;20027;-89
2022/09/06 07:06:49;;;;;;;0.20;0.20;;;;;;;;;;6223374;22;20379;-88
2022/09/06 07:09:16;;;;;;;0.10;0.10;;;;;;;;;;6222554;22;20019;-87
2022/09/06 07:11:42;;;;;;;0.00;0.00;;;;;;;;;;6246407;22;20019;-85
2022/09/06 07:14:08;;;;;;;0.00;0.00;;;;;;;;;;6222462;22;20020;-85
2022/09/06 07:16:34;;;;;;;2.00;0.80;;;;;;;;;;6221563;22;20016;-87
2022/09/06 07:19:00;;;;;;;0.00;0.00;;;;;;;;;;6223113;22;20061;-89
2022/09/06 07:21:27;;;;;;;0.00;0.00;;;;;;;;;;6224236;22;20425;-90
2022/09/06 07:23:55;;;;;;;0.10;0.10;;;;;;;;;;6225451;22;20396;-89
2022/09/06 07:26:22;;;;;;;0.00;0.00;;;;;;;;;;6224672;22;20051;-92
2022/09/06 07:28:51;;;;;;;0.10;0.10;;;;;;;;;;6224119;22;20099;-87
2022/09/06 07:31:17;;;;;;;0.10;0.10;;;;;;;;;;6223339;22;20053;-85
2022/09/06 07:33:43;;;;;;;0.10;0.10;;;;;;;;;;6223606;22;20023;-88
2022/09/06 07:36:10;;;;;;;0.03;0.03;;;;;;;;;;6225170;22;20015;-88
2022/09/06 07:38:36;;;;;;;0.00;0.00;;;;;;;;;;6227101;22;20019;-88
2022/09/06 07:41:04;;;;;;;0.00;0.00;;;;;;;;;;6226871;22;20015;-89
2022/09/06 07:43:30;;;;;;;0.00;0.00;;;;;;;;;;6252533;22;20020;-90
2022/09/06 07:46:09;;;;;;;0.08;0.08;;;;;;;;;;6252729;22;20022;-88
2022/09/06 07:48:36;;;;;;;0.10;0.10;;;;;;;;;;6227221;22;20515;-89
2022/09/06 07:51:07;;;;;;;0.10;0.10;;;;;;;;;;6227040;22;20011;-89
2022/09/06 07:53:33;;;;;;;0.10;0.10;;;;;;;;;;6227341;22;20020;-88
2022/09/06 07:56:00;;;;;;;0.00;0.00;;;;;;;;;;6227611;22;20353;-89
2022/09/06 07:58:27;;;;;;;0.00;0.00;;;;;;;;;;6227021;22;20089;-87
2022/09/06 08:00:54;;;;;;;0.10;0.10;;;;;;;;;;6225334;22;20073;-84
2022/09/06 08:03:20;;;;;;;0.10;0.10;;;;;;;;;;6225384;22;20029;-84
2022/09/06 08:05:49;;;;;;;0.00;0.00;;;;;;;;;;6225993;22;20061;-88
2022/09/06 08:08:15;;;;;;;0.00;0.00;;;;;;;;;;6225931;22;20411;-87
2022/09/06 08:10:41;;;;;;;0.00;0.00;;;;;;;;;;6250837;22;20043;-86
2022/09/06 08:13:07;;;;;;;0.00;0.00;;;;;;;;;;6226051;22;20011;-88
2022/09/06 08:15:33;;;;;;;0.00;0.00;;;;;;;;;;6225465;22;20086;-88
2022/09/06 08:17:59;;;;;;;0.10;0.10;;;;;;;;;;6251822;22;20019;-88
2022/09/06 08:20:25;;;;;;;0.00;0.00;;;;;;;;;;6225468;22;20406;-89
2022/09/06 08:22:51;;;;;;;0.00;0.00;;;;;;;;;;6226601;22;20019;-87
2022/09/06 08:25:17;;;;;;;0.00;0.00;;;;;;;;;;6225954;22;20098;-87
2022/09/06 08:27:44;;;;;;;0.10;0.10;;;;;;;;;;6251161;22;20483;-88
2022/09/06 08:30:10;;;;;;;0.00;0.00;;;;;;;;;;6225648;22;20012;-88
2022/09/06 08:32:37;;;;;;;0.10;0.10;;;;;;;;;;6227074;22;20054;-87
2022/09/06 08:35:04;;;;;;;0.00;0.00;;;;;;;;;;6225812;22;20345;-88
2022/09/06 08:37:30;;;;;;;0.10;0.10;;;;;;;;;;6226348;22;20518;-88
2022/09/06 08:39:56;;;;;;;0.00;0.00;;;;;;;;;;6224791;22;20344;-88
2022/09/06 08:42:22;;;;;;;0.00;0.00;;;;;;;;;;6225824;22;20015;-89
2022/09/06 08:44:51;;;;;;;0.10;0.10;;;;;;;;;;6226844;22;20022;-89
2022/09/06 08:47:18;;;;;;;0.00;0.00;;;;;;;;;;6224682;22;20147;-85
2022/09/06 08:49:48;;;;;;;0.00;0.00;;;;;;;;;;6248271;22;20341;-86
2022/09/06 08:52:33;;;;;;;0.00;0.00;;;;;;;;;;6225388;22;20015;-86
2022/09/06 08:55:18;;;;;;;0.00;0.00;;;;;;;;;;6224475;22;20102;-87
2022/09/06 08:58:13;;;;;;;0.00;0.00;;;;;;;;;;6224228;22;20012;-87
2022/09/06 09:00:41;;;;;;;0.00;0.00;;;;;;;;;;6193943;22;20021;-87
2022/09/06 09:03:24;;;;;;;0.10;0.10;;;;;;;;;;6224421;22;20061;-87
2022/09/06 09:05:55;;;;;;;0.10;0.10;;;;;;;;;;6249317;22;20026;-87
2022/09/06 09:08:21;;;;;;;0.00;0.00;;;;;;;;;;6224259;22;20019;-90
2022/09/06 09:11:07;;;;;;;0.10;0.10;;;;;;;;;;6224528;22;20053;-89
2022/09/06 09:13:48;;;;;;;0.00;0.00;;;;;;;;;;6224698;22;20018;-89
2022/09/06 09:16:14;;;;;;;0.00;0.00;;;;;;;;;;6224026;22;20091;-87
2022/09/06 09:18:43;;;;;;;0.10;0.10;;;;;;;;;;6223862;22;20015;-86
2022/09/06 09:21:09;;;;;;;0.10;0.10;;;;;;;;;;6224188;22;20024;-89
2022/09/06 09:23:35;;;;;;;0.00;0.00;;;;;;;;;;6224579;22;20020;-86
2022/09/06 09:26:06;;;;;;;0.10;0.10;;;;;;;;;;6223835;22;20310;-85
2022/09/06 09:28:34;;;;;;;0.10;0.10;;;;;;;;;;6223713;22;20016;-87
2022/09/06 09:31:00;;;;;;;0.08;0.08;;;;;;;;;;6223919;22;20016;-89
2022/09/06 09:33:27;;;;;;;0.00;0.00;;;;;;;;;;6224471;22;20011;-89
2022/09/06 09:35:54;;;;;;;0.05;0.05;;;;;;;;;;6224314;22;20027;-88
2022/09/06 09:38:50;;;;;;;0.00;0.00;;;;;;;;;;6223947;22;20118;-88
2022/09/06 09:41:31;;;;;;;0.00;0.00;;;;;;;;;;6247531;22;20015;-87
2022/09/06 09:44:17;;;;;;;0.10;0.10;;;;;;;;;;6224262;22;20022;-88
2022/09/06 09:46:43;;;;;;;0.05;0.05;;;;;;;;;;6223335;22;20016;-86
2022/09/06 09:49:14;;;;;;;0.00;0.00;;;;;;;;;;6222262;22;20364;-86
2022/09/06 09:51:44;;;;;;;0.00;0.00;;;;;;;;;;6223252;22;20061;-86
2022/09/06 09:54:15;;;;;;;0.10;0.10;;;;;;;;;;6222935;22;20015;-85
2022/09/06 09:56:52;;;;;;;0.00;0.00;;;;;;;;;;6216602;22;20019;-87
2022/09/06 09:59:18;;;;;;;0.00;0.00;;;;;;;;;;6222304;22;20775;-87
2022/09/06 10:01:44;;;;;;;0.00;0.00;;;;;;;;;;6222989;22;20384;-87
2022/09/06 10:04:16;;;;;;;0.00;0.00;;;;;;;;;;6223296;22;20020;-87
2022/09/06 10:06:42;;;;;;;0.00;0.00;;;;;;;;;;6248479;22;20095;-86
2022/09/06 10:09:32;;;;;;;0.00;0.00;;;;;;;;;;6222420;22;20384;-86
2022/09/06 10:11:58;;;;;;;0.03;0.03;;;;;;;;;;6240407;22;20018;-86
2022/09/06 10:14:27;;;;;;;0.00;0.00;;;;;;;;;;6248278;22;20387;-86
2022/09/06 10:16:54;;;;;;;0.00;0.00;;;;;;;;;;6223049;22;20023;-86
2022/09/06 10:19:31;;;;;;;0.00;0.00;;;;;;;;;;6222030;22;20349;-87
2022/09/06 10:22:05;;;;;;;0.10;0.10;;;;;;;;;;6248511;22;20038;-86
2022/09/06 10:24:42;;;;;;;0.00;0.00;;;;;;;;;;6223290;22;20020;-86
2022/09/06 10:27:13;;;;;;;0.10;0.10;;;;;;;;;;6222603;22;20020;-87
2022/09/06 10:30:00;;;;;;;0.10;0.10;;;;;;;;;;6222411;22;20024;-87
2022/09/06 10:32:26;;;;;;;0.00;0.00;;;;;;;;;;6222963;22;20353;-87
2022/09/06 10:35:06;;;;;;;0.00;0.00;;;;;;;;;;6222997;22;20015;-87
2022/09/06 10:37:32;;;;;;;0.00;0.00;;;;;;;;;;6223247;22;20445;-86
2022/09/06 10:40:10;;;;;;;0.05;0.05;;;;;;;;;;6247531;22;20019;-87
2022/09/06 10:42:39;;;;;;;0.00;0.00;;;;;;;;;;6248207;22;20023;-87
2022/09/06 10:45:05;;;;;;;0.00;0.00;;;;;;;;;;6221749;22;20054;-87
2022/09/06 10:47:46;;;;;;;0.00;0.00;;;;;;;;;;6248244;22;20016;-88
2022/09/06 10:50:13;;;;;;;0.10;0.10;;;;;;;;;;6221678;22;20016;-85
2022/09/06 10:52:41;;;;;;;0.10;0.10;;;;;;;;;;6246648;22;20388;-86
2022/09/06 10:55:11;;;;;;;0.00;0.00;;;;;;;;;;6222229;22;20051;-86
2022/09/06 10:57:41;;;;;;;0.08;0.08;;;;;;;;;;6222521;22;20011;-86
2022/09/06 11:00:12;;;;;;;0.10;0.10;;;;;;;;;;6222015;22;20065;-89
2022/09/06 11:02:44;;;;;;;0.10;0.10;;;;;;;;;;6223195;22;20012;-88
2022/09/06 11:05:11;;;;;;;0.03;0.03;;;;;;;;;;6248839;22;20015;-88
2022/09/06 11:07:40;;;;;;;0.15;0.15;;;;;;;;;;6222922;22;20194;-87
2022/09/06 11:10:09;;;;;;;0.08;0.08;;;;;;;;;;6247831;22;20022;-89
2022/09/06 11:12:41;;;;;;;0.05;0.05;;;;;;;;;;6223351;22;20091;-88
2022/09/06 11:15:11;;;;;;;0.00;0.00;;;;;;;;;;6222498;22;20054;-87
2022/09/06 11:17:39;;;;;;;0.00;0.00;;;;;;;;;;6248173;22;20058;-87
2022/09/06 11:20:20;;;;;;;0.10;0.10;;;;;;;;;;6222694;22;20070;-89
2022/09/06 11:23:04;;;;;;;0.00;0.00;;;;;;;;;;6223374;22;20011;-90
2022/09/06 11:25:49;;;;;;;0.00;0.00;;;;;;;;;;6223624;22;20051;-88
2022/09/06 11:28:18;;;;;;;0.00;0.00;;;;;;;;;;6222912;22;20015;-88
2022/09/06 11:30:48;;;;;;;0.00;0.00;;;;;;;;;;6223319;22;20011;-90
2022/09/06 11:33:20;;;;;;;0.00;0.00;;;;;;;;;;6223160;22;20016;-87
2022/09/06 11:35:46;;;;;;;0.00;0.00;;;;;;;;;;6248171;22;20321;-92
2022/09/06 11:38:15;;;;;;;0.00;0.00;;;;;;;;;;6223192;22;20026;-88
2022/09/06 11:40:46;;;;;;;0.00;0.00;;;;;;;;;;6248166;22;20020;-87
2022/09/06 11:43:17;;;;;;;0.08;0.08;;;;;;;;;;6222954;22;20468;-87
2022/09/06 11:45:44;;;;;;;0.10;0.10;;;;;;;;;;6222507;22;20081;-88
2022/09/06 11:48:25;;;;;;;0.00;0.00;;;;;;;;;;6223003;22;20043;-87
2022/09/06 11:50:55;;;;;;;0.00;0.00;;;;;;;;;;6222574;22;20349;-87
2022/09/06 11:53:22;;;;;;;0.00;0.00;;;;;;;;;;6222015;22;20022;-86
2022/09/06 11:56:09;;;;;;;0.00;0.00;;;;;;;;;;6222807;22;20016;-88
2022/09/06 11:58:44;;;;;;;0.00;0.00;;;;;;;;;;6223122;22;20016;-89
2022/09/06 12:01:17;;;;;;;0.00;0.00;;;;;;;;;;6223035;22;20019;-88
2022/09/06 12:03:54;;;;;;;0.10;0.10;;;;;;;;;;6223559;22;20024;-89
2022/09/06 12:06:20;;;;;;;0.10;0.10;;;;;;;;;;6223550;22;20023;-90
2022/09/06 12:08:53;;;;;;;0.00;0.00;;;;;;;;;;6222312;22;20434;-88
2022/09/06 12:11:26;;;;;;;0.00;0.00;;;;;;;;;;6223343;22;20445;-89
2022/09/06 12:14:09;;;;;;;0.05;0.05;;;;;;;;;;6222441;22;20016;-87
2022/09/06 12:17:08;;;;;;;0.00;0.00;;;;;;;;;;6222326;22;20084;-88
2022/09/06 12:19:39;;;;;;;0.10;0.10;;;;;;;;;;6214450;22;20012;-88
2022/09/06 12:22:40;;;;;;;0.00;0.00;;;;;;;;;;6223663;22;20407;-89
2022/09/06 12:25:25;;;;;;;0.00;0.00;;;;;;;;;;6215551;22;20309;-89
2022/09/06 12:27:55;;;;;;;0.00;0.00;;;;;;;;;;6225332;22;20067;-90
2022/09/06 12:30:31;;;;;;;0.10;0.10;;;;;;;;;;6224641;22;20037;-89
2022/09/06 12:32:57;;;;;;;0.00;0.00;;;;;;;;;;6224936;22;20016;-89
2022/09/06 12:35:26;;;;;;;0.00;0.00;;;;;;;;;;6224473;22;20013;-87
2022/09/06 12:37:59;;;;;;;0.10;0.10;;;;;;;;;;6218426;22;20016;-88
2022/09/06 12:40:26;;;;;;;0.00;0.00;;;;;;;;;;6223566;22;20012;-88
2022/09/06 12:42:53;;;;;;;0.10;0.10;;;;;;;;;;6224225;22;20016;-88
2022/09/06 12:45:20;;;;;;;0.00;0.00;;;;;;;;;;6223865;22;20015;-87
2022/09/06 12:48:07;;;;;;;0.10;0.10;;;;;;;;;;6223951;22;20427;-86
2022/09/06 12:50:33;;;;;;;0.10;0.10;;;;;;;;;;6223384;22;20019;-86
2022/09/06 12:53:01;;;;;;;0.00;0.00;;;;;;;;;;6249048;22;20047;-86
2022/09/06 12:55:27;;;;;;;0.00;0.00;;;;;;;;;;6223365;22;20023;-86
2022/09/06 12:57:55;;;;;;;0.00;0.00;;;;;;;;;;6223754;22;20018;-86
2022/09/06 13:00:21;;;;;;;0.00;0.00;;;;;;;;;;6222832;22;20011;-86
2022/09/06 13:03:07;;;;;;;0.00;0.00;;;;;;;;;;6223617;22;20042;-86
2022/09/06 13:05:34;;;;;;;0.10;0.10;;;;;;;;;;6224001;22;20054;-85
2022/09/06 13:08:18;;;;;;;0.00;0.00;;;;;;;;;;6223569;22;20020;-86
2022/09/06 13:10:45;;;;;;;0.00;0.00;;;;;;;;;;6223117;22;20047;-86
2022/09/06 13:13:11;;;;;;;0.10;0.10;;;;;;;;;;6223609;22;20095;-85
2022/09/06 13:15:38;;;;;;;0.03;0.03;;;;;;;;;;6223666;22;20023;-86
2022/09/06 13:18:26;;;;;;;0.00;0.00;;;;;;;;;;6223789;22;20445;-86
2022/09/06 13:20:59;;;;;;;0.00;0.00;;;;;;;;;;6217726;22;20020;-86
2022/09/06 13:23:25;;;;;;;0.10;0.10;;;;;;;;;;6223348;22;20023;-87
2022/09/06 13:25:52;;;;;;;0.00;0.00;;;;;;;;;;6223600;22;20020;-87
2022/09/06 13:28:25;;;;;;;0.00;0.00;;;;;;;;;;6223184;22;20043;-86
2022/09/06 13:31:03;;;;;;;0.10;0.10;;;;;;;;;;6223282;22;20107;-87
2022/09/06 13:33:30;;;;;;;0.03;0.03;;;;;;;;;;6223302;22;20103;-87
2022/09/06 13:36:05;;;;;;;0.00;0.00;;;;;;;;;;6248294;22;20051;-87
2022/09/06 13:38:37;;;;;;;0.00;0.00;;;;;;;;;;6223432;22;20016;-86
2022/09/06 13:41:05;;;;;;;0.00;0.00;;;;;;;;;;6222859;22;20069;-87
2022/09/06 13:43:39;;;;;;;0.00;0.00;;;;;;;;;;6248829;22;20020;-87
2022/09/06 13:46:05;;;;;;;;;;;;;;;;;;6223524;22;20023;-87
2022/09/06 13:48:31;;;;;;;0.00;0.00;;;;;;;;;;6223136;22;19968;-86
2022/09/06 13:50:57;;;;;;;0.00;0.00;;;;;;;;;;6222807;22;20012;-86
2022/09/06 13:53:23;;;;;;;0.10;0.10;;;;;;;;;;6223342;22;20012;-87
2022/09/06 13:55:51;;;;;;;0.00;0.00;;;;;;;;;;6223156;22;20016;-87
2022/09/06 13:58:17;;;;;;;0.08;0.08;;;;;;;;;;6223545;22;20106;-87
2022/09/06 14:00:45;;;;;;;0.00;0.00;;;;;;;;;;6222553;22;20023;-86
2022/09/06 14:03:13;;;;;;;0.05;0.05;;;;;;;;;;6223207;22;20016;-87
2022/09/06 14:05:39;;;;;;;0.10;0.10;;;;;;;;;;6223079;22;20098;-87
2022/09/06 14:08:05;;;;;;;0.00;0.00;;;;;;;;;;6223075;22;20016;-87
2022/09/06 14:10:31;;;;;;;0.00;0.00;;;;;;;;;;6222608;22;20015;-87
2022/09/06 14:12:57;;;;;;;0.00;0.00;;;;;;;;;;6223102;22;20326;-87
2022/09/06 14:15:24;;;;;;;0.00;0.00;;;;;;;;;;6223213;22;20432;-88
2022/09/06 14:17:51;;;;;;;0.00;0.00;;;;;;;;;;6223531;22;20027;-88
2022/09/06 14:20:17;;;;;;;0.00;0.00;;;;;;;;;;6223954;22;20062;-90
2022/09/06 14:22:43;;;;;;;0.10;0.10;;;;;;;;;;6224050;22;20094;-89
2022/09/06 14:25:09;;;;;;;0.00;0.00;;;;;;;;;;6223682;22;20094;-88
2022/09/06 14:27:35;;;;;;;0.10;0.10;;;;;;;;;;6223342;22;20015;-88
2022/09/06 14:30:02;;;;;;;0.00;0.00;;;;;;;;;;6223292;22;20041;-90
2022/09/06 14:32:28;;;;;;;0.10;0.10;;;;;;;;;;6224357;22;20345;-89
2022/09/06 14:34:54;;;;;;;0.10;0.10;;;;;;;;;;6224432;22;20023;-89
2022/09/06 14:37:20;;;;;;;0.10;0.10;;;;;;;;;;6224422;22;20015;-90
2022/09/06 14:39:47;;;;;;;0.00;0.00;;;;;;;;;;6223515;22;20020;-89
2022/09/06 14:42:13;;;;;;;0.00;0.00;;;;;;;;;;6223957;22;20019;-89
2022/09/06 14:44:40;;;;;;;0.03;0.03;;;;;;;;;;6223907;22;20435;-89
2022/09/06 14:47:06;;;;;;;0.03;0.03;;;;;;;;;;6223350;22;20023;-90
2022/09/06 14:49:32;;;;;;;0.10;0.10;;;;;;;;;;6223061;22;20463;-90
2022/09/06 14:51:58;;;;;;;0.10;0.10;;;;;;;;;;6223614;22;20091;-90
2022/09/06 14:54:24;;;;;;;0.10;0.10;;;;;;;;;;6224046;22;20020;-89
2022/09/06 14:56:50;;;;;;;0.08;0.08;;;;;;;;;;6223899;22;20022;-90